createdAt,value
2022-10-21T00:29:59.026Z,0
2022-10-21T00:30:39.398Z,0
2022-10-21T00:31:19.897Z,0
2022-10-21T00:32:00.622Z,0
2022-10-21T00:32:41.246Z,0
2022-10-21T00:33:22.362Z,0
2022-10-21T00:34:02.983Z,0
2022-10-21T00:40:07.970Z,0
2022-10-21T00:40:48.667Z,0
2022-10-21T00:41:29.230Z,0
2022-10-21T00:42:09.616Z,0
2022-10-21T00:42:50.373Z,0
2022-10-21T00:43:30.518Z,0
2022-10-21T00:44:11.116Z,0
2022-10-21T00:44:51.592Z,0
2022-10-21T00:45:32.212Z,0
2022-10-21T00:46:12.858Z,0
2022-10-21T00:46:54.159Z,0
2022-10-21T00:51:37.992Z,0
2022-10-21T00:52:18.729Z,0
2022-10-21T00:52:59.144Z,0
2022-10-21T00:53:39.752Z,0
2022-10-21T00:54:20.352Z,0
2022-10-21T00:55:00.873Z,0
2022-10-21T00:55:43.146Z,0
2022-10-21T01:01:08.414Z,0
2022-10-21T01:01:49.074Z,0
2022-10-21T01:02:29.571Z,0
2022-10-21T01:03:10.154Z,0
2022-10-21T01:03:50.597Z,0
2022-10-21T01:04:31.378Z,0
2022-10-21T01:05:12.115Z,0
2022-10-21T01:05:52.870Z,0
2022-10-21T01:12:37.942Z,0
2022-10-21T01:13:18.442Z,0
2022-10-21T01:13:58.980Z,0
2022-10-21T01:14:39.509Z,0
2022-10-21T01:15:19.975Z,0
2022-10-21T01:16:00.561Z,0
2022-10-21T01:16:42.163Z,0
2022-10-21T01:17:40.131Z,0
2022-10-21T01:18:02.182Z,0
2022-10-21T01:18:42.727Z,0
2022-10-21T01:19:23.228Z,0
2022-10-21T01:25:28.153Z,0
2022-10-21T01:26:08.598Z,0
2022-10-21T01:26:49.118Z,0
2022-10-21T01:27:29.638Z,0
2022-10-21T01:28:10.214Z,0
2022-10-21T01:28:50.639Z,0
2022-10-21T01:29:31.236Z,0
2022-10-21T01:30:11.600Z,0
2022-10-21T01:30:52.168Z,0
2022-10-21T01:31:32.702Z,0
2022-10-21T01:32:13.516Z,0
2022-10-21T01:38:58.299Z,0
2022-10-21T01:39:38.759Z,0
2022-10-21T01:40:19.285Z,0
2022-10-21T01:40:59.767Z,0
2022-10-21T01:41:40.221Z,0
2022-10-21T01:42:20.798Z,0
2022-10-21T01:43:01.370Z,0
2022-10-21T01:43:41.811Z,0
2022-10-21T01:45:02.864Z,0
2022-10-21T01:45:43.304Z,0
2022-10-21T01:52:04.674Z,0
2022-10-21T01:52:45.096Z,0
2022-10-21T01:53:25.538Z,0
2022-10-21T01:54:05.979Z,0
2022-10-21T01:54:46.462Z,0
2022-10-21T01:55:26.913Z,0
2022-10-21T01:56:07.401Z,0
2022-10-21T01:56:47.885Z,0
2022-10-21T01:57:28.369Z,0
2022-10-21T01:58:08.855Z,0
2022-10-21T01:58:49.335Z,0
2022-10-21T02:06:14.722Z,0
2022-10-21T02:06:55.143Z,0
2022-10-21T02:07:35.648Z,0
2022-10-21T02:08:16.117Z,0
2022-10-21T02:08:56.594Z,0
2022-10-21T02:09:37.058Z,0
2022-10-21T02:10:17.525Z,0
2022-10-21T02:10:58.003Z,0
2022-10-21T02:11:38.485Z,0
2022-10-21T02:12:18.973Z,0
2022-10-21T02:12:59.459Z,0
2022-10-21T02:18:24.342Z,0
2022-10-21T02:19:04.809Z,0
2022-10-21T02:19:45.205Z,0
2022-10-21T02:20:25.701Z,0
2022-10-21T02:21:06.148Z,0
2022-10-21T02:21:46.639Z,0
2022-10-21T02:22:27.115Z,0
2022-10-21T02:23:07.598Z,0
2022-10-21T02:23:48.089Z,0
2022-10-21T02:24:28.580Z,0
2022-10-21T02:25:09.046Z,0
2022-10-21T02:25:50.390Z,0
2022-10-21T02:32:34.842Z,0
2022-10-21T02:33:15.890Z,0
2022-10-21T02:33:55.816Z,0
2022-10-21T02:34:36.238Z,0
2022-10-21T02:35:16.743Z,0
2022-10-21T02:35:57.203Z,0
2022-10-21T02:36:37.658Z,0
2022-10-21T02:37:18.113Z,0
2022-10-21T02:37:58.574Z,0
2022-10-21T02:38:39.054Z,0
2022-10-21T02:39:19.520Z,0
2022-10-21T02:42:38.455Z,0
2022-10-21T02:43:18.811Z,0
2022-10-21T02:43:59.291Z,0
2022-10-21T02:44:39.758Z,0
2022-10-21T02:45:20.215Z,0
2022-10-21T02:46:00.700Z,0
2022-10-21T02:46:41.192Z,0
2022-10-21T02:47:21.702Z,0
2022-10-21T02:48:02.225Z,0
2022-10-21T02:48:42.659Z,0
2022-10-21T02:49:23.218Z,0
2022-10-21T02:56:08.201Z,0
2022-10-21T02:56:48.627Z,0
2022-10-21T02:57:29.089Z,0
2022-10-21T02:58:09.553Z,0
2022-10-21T02:58:50.061Z,0
2022-10-21T02:59:30.566Z,0
2022-10-21T03:00:11.047Z,0
2022-10-21T03:00:51.667Z,0
2022-10-21T03:02:12.521Z,0
2022-10-21T03:02:53.017Z,0
2022-10-21T03:09:38.687Z,0
2022-10-21T03:10:19.139Z,0
2022-10-21T03:10:59.635Z,0
2022-10-21T03:11:40.133Z,0
2022-10-21T03:12:20.624Z,0
2022-10-21T03:13:01.062Z,0
2022-10-21T03:13:41.529Z,0
2022-10-21T03:14:22.132Z,0
2022-10-21T03:15:02.653Z,0
2022-10-21T03:15:43.121Z,0
2022-10-21T03:22:27.944Z,0
2022-10-21T03:23:08.444Z,0
2022-10-21T03:23:49.045Z,0
2022-10-21T03:24:29.534Z,0
2022-10-21T03:25:10.075Z,0
2022-10-21T03:25:50.487Z,0
2022-10-21T03:26:30.970Z,0
2022-10-21T03:27:11.444Z,0
2022-10-21T03:27:52.005Z,0
2022-10-21T03:28:32.538Z,0
2022-10-21T03:29:13.071Z,0
2022-10-21T03:34:23.729Z,0
2022-10-21T03:35:04.163Z,0
2022-10-21T03:35:44.719Z,0
2022-10-21T03:36:25.214Z,0
2022-10-21T03:37:05.667Z,0
2022-10-21T03:37:46.185Z,0
2022-10-21T03:38:26.629Z,0
2022-10-21T03:39:07.092Z,0
2022-10-21T03:40:28.063Z,0
2022-10-21T03:47:53.243Z,0
2022-10-21T03:48:33.724Z,0
2022-10-21T03:49:19.942Z,0
2022-10-21T03:49:54.777Z,0
2022-10-21T03:51:15.741Z,0
2022-10-21T03:51:56.199Z,0
2022-10-21T03:52:36.979Z,0
2022-10-21T03:53:30.781Z,0
2022-10-21T03:53:57.661Z,0
2022-10-21T03:54:38.120Z,0
2022-10-21T04:01:23.128Z,0
2022-10-21T04:02:03.630Z,0
2022-10-21T04:02:44.088Z,0
2022-10-21T04:03:24.556Z,0
2022-10-21T04:04:04.964Z,0
2022-10-21T04:04:45.431Z,0
2022-10-21T04:05:25.913Z,0
2022-10-21T04:06:06.388Z,0
2022-10-21T04:06:46.884Z,0
2022-10-21T04:07:27.377Z,0
2022-10-21T04:08:07.885Z,0
2022-10-21T04:15:33.303Z,0
2022-10-21T04:16:13.788Z,0
2022-10-21T04:17:02.580Z,0
2022-10-21T04:17:34.740Z,0
2022-10-21T04:18:15.246Z,0
2022-10-21T04:18:55.679Z,0
2022-10-21T04:19:36.172Z,0
2022-10-21T04:20:16.663Z,0
2022-10-21T04:20:57.125Z,0
2022-10-21T04:21:37.629Z,0
2022-10-21T04:28:23.323Z,0
2022-10-21T04:29:03.784Z,0
2022-10-21T04:29:44.328Z,0
2022-10-21T04:30:24.763Z,0
2022-10-21T04:31:05.233Z,0
2022-10-21T04:31:45.739Z,0
2022-10-21T04:32:26.229Z,0
2022-10-21T04:33:06.674Z,0
2022-10-21T04:33:47.150Z,0
2022-10-21T04:34:27.628Z,0
2022-10-21T04:35:08.101Z,0
2022-10-21T04:41:53.059Z,0
2022-10-21T04:42:33.573Z,0
2022-10-21T04:43:14.053Z,0
2022-10-21T04:43:54.535Z,0
2022-10-21T04:44:35.006Z,0
2022-10-21T04:47:48.709Z,0
2022-10-21T04:48:29.218Z,0
2022-10-21T04:49:09.724Z,0
2022-10-21T04:49:50.207Z,0
2022-10-21T04:50:30.692Z,0
2022-10-21T04:51:11.271Z,0
2022-10-21T04:51:51.785Z,0
2022-10-21T04:52:32.219Z,0
2022-10-21T04:53:12.731Z,0
2022-10-21T04:53:53.215Z,0
2022-10-21T04:54:33.706Z,0
2022-10-21T05:01:18.751Z,0
2022-10-21T05:01:59.144Z,0
2022-10-21T05:02:39.828Z,0
2022-10-21T05:03:20.094Z,0
2022-10-21T05:04:00.561Z,0
2022-10-21T05:04:41.067Z,0
2022-10-21T05:05:21.561Z,0
2022-10-21T05:06:02.038Z,0
2022-10-21T05:06:42.647Z,0
2022-10-21T05:07:23.136Z,0
2022-10-21T05:08:05.272Z,0
2022-10-21T05:14:48.565Z,0
2022-10-21T05:15:29.011Z,0
2022-10-21T05:16:09.566Z,0
2022-10-21T05:16:50.074Z,0
2022-10-21T05:17:30.542Z,0
2022-10-21T05:18:11.012Z,0
2022-10-21T05:18:51.538Z,0
2022-10-21T05:19:32.055Z,0
2022-10-21T05:20:12.542Z,0
2022-10-21T05:20:53.065Z,0
2022-10-21T05:21:33.542Z,0
2022-10-21T05:28:18.540Z,0
2022-10-21T05:28:59.011Z,0
2022-10-21T05:29:39.542Z,0
2022-10-21T05:30:20.052Z,0
2022-10-21T05:31:00.523Z,0
2022-10-21T05:31:40.997Z,0
2022-10-21T05:32:21.482Z,0
2022-10-21T05:33:01.965Z,0
2022-10-21T05:33:42.538Z,0
2022-10-21T05:34:23.015Z,0
2022-10-21T05:35:03.512Z,0
2022-10-21T05:41:48.593Z,0
2022-10-21T05:42:29.050Z,0
2022-10-21T05:43:09.513Z,0
2022-10-21T05:43:50.052Z,0
2022-10-21T05:44:30.544Z,0
2022-10-21T05:45:11.071Z,0
2022-10-21T05:45:52.034Z,0
2022-10-21T05:46:32.548Z,0
2022-10-21T05:47:13.072Z,0
2022-10-21T05:47:53.558Z,0
2022-10-21T06:32:15.797Z,64
2022-10-21T06:32:56.120Z,68
2022-10-21T06:33:36.620Z,68
2022-10-21T06:34:58.277Z,76
2022-10-21T06:38:19.390Z,88
2022-10-21T06:38:59.963Z,96
2022-10-21T06:39:40.525Z,100
2022-10-21T06:40:21.125Z,104
2022-10-21T06:41:01.786Z,104
2022-10-21T06:41:42.393Z,100
2022-10-21T06:42:22.990Z,100
2022-10-21T06:43:03.545Z,108
2022-10-21T06:49:35.402Z,100
2022-10-21T06:50:16.051Z,88
2022-10-21T06:51:01.083Z,88
2022-10-21T06:51:41.916Z,84
2022-10-21T06:52:22.631Z,84
2022-10-21T06:54:24.267Z,76
2022-10-21T06:55:04.852Z,72
2022-10-21T06:55:45.444Z,68
2022-10-21T06:56:26.033Z,64
2022-10-21T06:57:06.544Z,60
2022-10-21T06:57:47.195Z,56
2022-10-21T06:58:28.699Z,56
2022-10-21T06:59:09.336Z,48
2022-10-21T07:04:35.004Z,44
2022-10-21T07:05:16.251Z,48
2022-10-21T07:05:56.861Z,48
2022-10-21T07:06:38.088Z,48
2022-10-21T07:07:18.713Z,48
2022-10-21T07:10:18.654Z,48
2022-10-21T07:10:59.457Z,48
2022-10-21T07:11:40.199Z,48
2022-10-21T07:12:20.731Z,44
2022-10-21T07:13:01.317Z,48
2022-10-21T07:13:42.792Z,48
2022-10-21T07:14:23.326Z,52
2022-10-21T07:21:08.303Z,120
2022-10-21T07:21:48.764Z,120
2022-10-21T07:22:29.300Z,116
2022-10-21T07:23:10.535Z,112
2022-10-21T07:23:50.295Z,116
2022-10-21T07:24:30.770Z,112
2022-10-21T07:25:11.265Z,112
2022-10-21T07:25:51.741Z,96
2022-10-21T07:26:32.235Z,92
2022-10-21T07:27:12.887Z,92
2022-10-21T07:27:53.419Z,80
2022-10-21T07:33:58.730Z,100
2022-10-21T07:34:39.179Z,88
2022-10-21T07:35:19.728Z,80
2022-10-21T07:36:00.234Z,72
2022-10-21T07:36:40.744Z,64
2022-10-21T07:37:21.446Z,60
2022-10-21T07:38:02.060Z,56
2022-10-21T07:38:42.524Z,60
2022-10-21T07:39:22.982Z,60
2022-10-21T07:40:03.599Z,60
2022-10-21T07:44:48.921Z,80
2022-10-21T07:45:29.509Z,84
2022-10-21T07:46:10.412Z,80
2022-10-21T07:46:50.878Z,68
2022-10-21T07:47:31.304Z,68
2022-10-21T07:48:11.779Z,64
2022-10-21T07:48:52.390Z,64
2022-10-21T07:50:13.367Z,68
2022-10-21T07:52:11.766Z,64
2022-10-21T07:53:00.649Z,64
2022-10-21T07:53:32.727Z,68
2022-10-21T07:54:14.817Z,68
2022-10-21T07:55:02.893Z,68
2022-10-21T07:55:43.635Z,68
2022-10-21T07:56:24.128Z,68
2022-10-21T07:57:04.601Z,72
2022-10-21T07:57:45.131Z,76
2022-10-21T07:58:25.705Z,72
2022-10-21T07:59:10.299Z,72
2022-10-21T08:05:39.385Z,84
2022-10-21T08:06:20.337Z,92
2022-10-21T08:07:00.895Z,92
2022-10-21T08:07:41.381Z,96
2022-10-21T08:08:21.874Z,96
2022-10-21T08:09:02.392Z,96
2022-10-21T08:09:42.908Z,92
2022-10-21T08:10:23.386Z,88
2022-10-21T08:11:03.983Z,88
2022-10-21T08:17:49.156Z,88
2022-10-21T08:18:29.642Z,92
2022-10-21T08:19:10.184Z,96
2022-10-21T08:19:50.956Z,96
2022-10-21T08:20:31.514Z,100
2022-10-21T08:21:11.995Z,108
2022-10-21T08:21:52.791Z,108
2022-10-21T08:22:33.207Z,112
2022-10-21T08:23:13.886Z,116
2022-10-21T08:28:43.410Z,120
2022-10-21T08:29:24.018Z,120
2022-10-21T08:33:29.375Z,124
2022-10-21T08:34:09.929Z,124
2022-10-21T08:34:50.671Z,124
2022-10-21T08:35:31.083Z,124
2022-10-21T08:36:11.648Z,128
2022-10-21T08:36:52.289Z,128
2022-10-21T08:37:32.980Z,132
2022-10-21T08:38:13.364Z,132
2022-10-21T08:45:00.242Z,144
2022-10-21T08:45:40.772Z,148
2022-10-21T08:46:21.285Z,148
2022-10-21T08:47:01.977Z,144
2022-10-21T08:47:42.656Z,140
2022-10-21T08:48:28.415Z,132
2022-10-21T08:49:09.700Z,128
2022-10-21T08:50:29.154Z,112
2022-10-21T08:52:43.962Z,124
2022-10-21T08:53:24.924Z,116
2022-10-21T08:54:05.364Z,112
2022-10-21T08:54:45.895Z,100
2022-10-21T08:55:26.485Z,88
2022-10-21T08:56:06.965Z,80
2022-10-21T08:56:47.499Z,72
2022-10-21T08:57:27.959Z,68
2022-10-21T08:58:10.537Z,68
2022-10-21T08:58:48.966Z,72
2022-10-21T09:04:53.894Z,100
2022-10-21T09:05:34.427Z,100
2022-10-21T09:06:14.947Z,100
2022-10-21T09:06:55.454Z,104
2022-10-21T09:07:36.261Z,100
2022-10-21T09:08:16.487Z,104
2022-10-21T09:08:57.336Z,104
2022-10-21T09:09:37.680Z,104
2022-10-21T09:10:18.241Z,100
2022-10-21T09:10:58.719Z,104
2022-10-21T09:17:44.009Z,112
2022-10-21T09:18:24.602Z,116
2022-10-21T09:19:05.095Z,120
2022-10-21T09:22:34.600Z,144
2022-10-21T09:23:01.707Z,148
2022-10-21T09:23:42.159Z,152
2022-10-21T09:24:22.755Z,160
2022-10-21T09:25:03.285Z,164
2022-10-21T09:25:43.843Z,168
2022-10-21T09:29:00.455Z,180
2022-10-21T09:29:41.015Z,184
2022-10-21T09:30:21.546Z,188
2022-10-21T09:31:02.061Z,196
2022-10-21T09:31:42.536Z,204
2022-10-21T09:32:23.090Z,208
2022-10-21T09:33:03.539Z,216
2022-10-21T09:33:44.061Z,228
2022-10-21T09:34:24.551Z,240
2022-10-21T09:35:05.083Z,252
2022-10-21T09:41:10.267Z,348
2022-10-21T09:41:51.692Z,352
2022-10-21T09:42:46.673Z,360
2022-10-21T09:43:11.793Z,364
2022-10-21T09:43:52.369Z,372
2022-10-21T09:44:32.830Z,380
2022-10-21T09:45:13.351Z,388
2022-10-21T09:45:53.898Z,392
2022-10-21T09:46:34.380Z,396
2022-10-21T09:47:15.384Z,404
2022-10-21T09:53:37.001Z,372
2022-10-21T09:54:17.555Z,360
2022-10-21T09:54:58.793Z,336
2022-10-21T09:55:39.373Z,304
2022-10-21T09:56:20.041Z,280
2022-10-21T09:57:00.537Z,252
2022-10-21T09:57:41.072Z,212
2022-10-21T09:58:21.712Z,184
2022-10-21T10:05:06.789Z,308
2022-10-21T10:05:47.408Z,296
2022-10-21T10:06:27.877Z,272
2022-10-21T10:07:08.445Z,236
2022-10-21T10:07:48.938Z,204
2022-10-21T10:08:29.478Z,192
2022-10-21T10:09:10.035Z,180
2022-10-21T10:09:50.542Z,172
2022-10-21T10:10:31.069Z,168
2022-10-21T10:11:11.670Z,168
2022-10-21T10:17:56.949Z,192
2022-10-21T10:18:37.494Z,192
2022-10-21T10:19:18.035Z,192
2022-10-21T10:22:48.275Z,168
2022-10-21T10:23:29.615Z,168
2022-10-21T10:24:12.899Z,164
2022-10-21T10:24:54.122Z,168
2022-10-21T10:25:38.120Z,168
2022-10-21T10:26:18.731Z,176
2022-10-21T10:26:59.139Z,176
2022-10-21T10:27:40.309Z,180
2022-10-21T10:28:20.422Z,176
2022-10-21T10:29:05.654Z,176
2022-10-21T10:33:07.902Z,184
2022-10-21T10:33:48.448Z,184
2022-10-21T10:34:28.971Z,184
2022-10-21T10:35:09.461Z,192
2022-10-21T10:35:49.893Z,196
2022-10-21T10:36:30.485Z,200
2022-10-21T10:37:10.930Z,204
2022-10-21T10:37:51.416Z,208
2022-10-21T10:38:31.920Z,216
2022-10-21T10:39:12.427Z,224
2022-10-21T10:39:52.907Z,236
2022-10-21T10:46:37.981Z,296
2022-10-21T10:47:18.412Z,304
2022-10-21T10:47:58.951Z,312
2022-10-21T10:48:39.479Z,320
2022-10-21T10:49:19.942Z,324
2022-10-21T10:50:00.483Z,328
2022-10-21T10:50:41.086Z,332
2022-10-21T10:51:21.672Z,336
2022-10-21T10:52:02.099Z,340
2022-10-21T10:52:42.599Z,348
2022-10-21T10:53:23.083Z,364
2022-10-21T11:00:08.018Z,484
2022-10-21T11:00:48.550Z,484
2022-10-21T11:01:29.010Z,488
2022-10-21T11:02:09.554Z,492
2022-10-21T11:02:49.986Z,496
2022-10-21T11:03:30.541Z,496
2022-10-21T11:04:11.010Z,504
2022-10-21T11:04:51.547Z,508
2022-10-21T11:05:31.966Z,516
2022-10-21T11:06:12.464Z,524
2022-10-21T11:06:52.999Z,532
2022-10-21T11:10:57.917Z,596
2022-10-21T11:11:38.367Z,600
2022-10-21T11:12:18.896Z,604
2022-10-21T11:12:59.503Z,604
2022-10-21T11:13:42.036Z,608
2022-10-21T11:14:21.858Z,612
2022-10-21T11:15:00.885Z,612
2022-10-21T11:15:41.445Z,612
2022-10-21T11:16:21.938Z,620
2022-10-21T11:17:02.427Z,624
2022-10-21T11:17:42.883Z,632
2022-10-21T11:23:08.072Z,744
2022-10-21T11:23:48.752Z,756
2022-10-21T11:24:29.279Z,760
2022-10-21T11:25:10.370Z,768
2022-10-21T11:25:50.991Z,780
2022-10-21T11:26:31.403Z,792
2022-10-21T11:27:13.465Z,808
2022-10-21T11:27:52.405Z,828
2022-10-21T11:28:33.062Z,860
2022-10-21T11:32:37.856Z,1064
2022-10-21T11:33:19.110Z,1108
2022-10-21T11:33:59.829Z,1168
2022-10-21T11:34:40.967Z,1228
2022-10-21T11:36:03.040Z,1316
2022-10-21T11:38:08.454Z,1356
2022-10-21T11:38:50.126Z,1376
2022-10-21T11:39:30.996Z,1400
2022-10-21T11:40:11.564Z,1452
2022-10-21T11:40:51.988Z,1456
2022-10-21T11:41:33.576Z,1528
2022-10-21T11:44:58.661Z,1512
2022-10-21T11:45:40.893Z,1484
2022-10-21T11:46:22.415Z,1452
2022-10-21T11:53:07.922Z,1652
2022-10-21T11:53:48.793Z,1636
2022-10-21T12:32:08.164Z,604
2022-10-21T12:32:52.005Z,620
2022-10-21T12:33:32.857Z,696
2022-10-21T12:34:13.686Z,760
2022-10-21T12:34:54.907Z,792
2022-10-21T12:35:36.233Z,844
2022-10-21T12:36:17.383Z,872
2022-10-21T12:36:59.995Z,920
2022-10-21T12:39:46.044Z,1024
2022-10-21T12:40:27.019Z,1044
2022-10-21T12:41:08.326Z,1052
2022-10-21T12:41:49.742Z,1064
2022-10-21T12:42:30.710Z,1092
2022-10-21T12:44:36.319Z,1144
2022-10-21T12:45:17.219Z,1148
2022-10-21T12:48:33.419Z,1096
2022-10-21T12:49:14.255Z,1084
2022-10-21T12:49:54.970Z,1076
2022-10-21T12:50:35.905Z,1076
2022-10-21T12:51:16.474Z,1080
2022-10-21T12:55:35.758Z,1036
2022-10-21T12:56:17.445Z,1048
2022-10-21T12:56:58.679Z,1064
2022-10-21T12:57:42.065Z,1048
2022-10-21T12:58:28.932Z,1048
2022-10-21T12:59:10.504Z,1052
2022-10-21T12:59:51.332Z,1048
2022-10-21T13:03:02.415Z,1092
2022-10-21T13:03:42.926Z,1092
2022-10-21T13:04:23.406Z,1092
2022-10-21T13:05:04.076Z,1076
2022-10-21T13:05:44.700Z,1068
2022-10-21T13:10:38.994Z,1184
2022-10-21T13:11:19.471Z,1168
2022-10-21T13:12:00.162Z,1188
2022-10-21T13:12:42.779Z,1224
2022-10-21T13:13:23.322Z,1064
2022-10-21T13:19:27.887Z,1224
2022-10-21T13:20:08.414Z,1220
2022-10-21T13:20:48.872Z,1196
2022-10-21T13:21:29.365Z,1212
2022-10-21T13:22:09.872Z,988
2022-10-21T13:22:50.380Z,936
2022-10-21T13:23:30.853Z,1016
2022-10-21T13:24:11.386Z,1028
2022-10-21T13:24:51.840Z,996
2022-10-21T13:25:32.315Z,980
2022-10-21T13:26:13.477Z,944
2022-10-21T13:31:10.679Z,900
2022-10-21T13:31:51.093Z,800
2022-10-21T13:32:31.579Z,760
2022-10-21T13:33:12.037Z,884
2022-10-21T13:33:52.589Z,964
2022-10-21T13:34:33.016Z,968
2022-10-21T13:35:13.508Z,972
2022-10-21T13:35:54.043Z,964
2022-10-21T13:37:14.986Z,992
2022-10-21T13:37:55.472Z,884
2022-10-21T13:44:40.309Z,612
2022-10-21T13:45:20.857Z,660
2022-10-21T13:46:01.344Z,620
2022-10-21T13:46:43.241Z,680
2022-10-21T13:47:22.303Z,736
2022-10-21T13:48:02.730Z,736
2022-10-21T13:48:43.236Z,760
2022-10-21T13:49:23.791Z,776
2022-10-21T13:50:04.222Z,772
2022-10-21T13:50:44.737Z,820
2022-10-21T13:51:25.260Z,812
2022-10-21T13:54:40.004Z,728
2022-10-21T13:55:20.416Z,712
2022-10-21T13:56:00.952Z,696
2022-10-21T13:56:41.400Z,676
2022-10-21T13:57:21.963Z,640
2022-10-21T13:58:02.468Z,672
2022-10-21T13:58:43.024Z,664
2022-10-21T13:59:23.408Z,656
2022-10-21T14:00:04.051Z,648
2022-10-21T14:00:44.473Z,628
2022-10-21T14:01:24.958Z,624
2022-10-21T14:07:29.587Z,728
2022-10-21T14:08:10.052Z,740
2022-10-21T14:08:50.606Z,752
2022-10-21T14:09:31.034Z,760
2022-10-21T14:10:11.529Z,804
2022-10-21T14:10:52.556Z,852
2022-10-21T14:11:34.736Z,840
2022-10-21T14:12:13.507Z,800
2022-10-21T14:12:54.037Z,796
2022-10-21T14:13:34.592Z,832
2022-10-21T14:20:59.979Z,704
2022-10-21T14:21:40.440Z,744
2022-10-21T14:22:20.905Z,820
2022-10-21T14:23:01.428Z,816
2022-10-21T14:23:41.937Z,764
2022-10-21T14:24:22.387Z,804
2022-10-21T14:25:02.881Z,832
2022-10-21T14:25:43.372Z,768
2022-10-21T14:26:23.819Z,796
2022-10-21T14:27:04.284Z,780
2022-10-21T14:27:44.762Z,728
2022-10-21T14:34:29.572Z,636
2022-10-21T14:35:10.087Z,640
2022-10-21T14:35:50.597Z,660
2022-10-21T14:36:31.063Z,720
2022-10-21T14:37:12.109Z,708
2022-10-21T14:37:52.062Z,728
2022-10-21T14:38:32.552Z,744
2022-10-21T14:39:13.056Z,684
2022-10-21T14:40:34.088Z,620
2022-10-21T14:41:14.616Z,636
2022-10-21T14:48:40.057Z,828
2022-10-21T14:49:20.539Z,884
2022-10-21T14:50:01.022Z,940
2022-10-21T14:50:41.521Z,992
2022-10-21T14:51:22.661Z,1048
2022-10-21T14:52:03.149Z,1236
2022-10-21T14:52:43.566Z,1592
2022-10-21T14:53:24.101Z,2060
2022-10-21T14:54:04.496Z,2764
2022-10-21T15:01:30.028Z,1748
2022-10-21T15:02:10.445Z,1856
2022-10-21T15:02:51.001Z,1600
2022-10-21T15:03:31.438Z,1552
2022-10-21T15:04:11.939Z,1436
2022-10-21T15:04:52.385Z,1500
2022-10-21T15:05:32.909Z,1520
2022-10-21T15:06:13.399Z,968
2022-10-21T15:06:53.891Z,1376
2022-10-21T15:07:34.387Z,1392
2022-10-21T15:08:14.893Z,1204
2022-10-21T15:14:59.828Z,1388
2022-10-21T15:15:40.303Z,1372
2022-10-21T15:16:20.809Z,1352
2022-10-21T15:17:01.329Z,1188
2022-10-21T15:17:41.910Z,1044
2022-10-21T15:18:22.331Z,908
2022-10-21T15:19:02.809Z,800
2022-10-21T15:19:43.382Z,748
2022-10-21T15:20:23.875Z,684
2022-10-21T15:21:04.451Z,636
2022-10-21T15:21:44.911Z,604
2022-10-21T15:28:29.930Z,428
2022-10-21T15:29:10.420Z,412
2022-10-21T15:29:50.912Z,404
2022-10-21T15:30:31.418Z,400
2022-10-21T15:31:11.906Z,396
2022-10-21T15:31:52.366Z,396
2022-10-21T15:32:32.862Z,388
2022-10-21T15:33:13.389Z,384
2022-10-21T15:33:53.819Z,380
2022-10-21T15:34:34.326Z,376
2022-10-21T15:41:59.677Z,312
2022-10-21T15:42:40.219Z,308
2022-10-21T15:43:20.706Z,304
2022-10-21T15:44:01.234Z,296
2022-10-21T15:44:41.768Z,292
2022-10-21T15:45:22.272Z,284
2022-10-21T15:46:02.745Z,284
2022-10-21T15:46:43.224Z,276
2022-10-21T15:47:23.733Z,272
2022-10-21T15:48:04.232Z,264
2022-10-21T15:48:44.717Z,260
2022-10-21T15:55:29.671Z,204
2022-10-21T15:56:10.200Z,196
2022-10-21T15:56:50.720Z,192
2022-10-21T15:57:31.211Z,188
2022-10-21T15:58:11.688Z,180
2022-10-21T15:58:52.168Z,176
2022-10-21T15:59:32.671Z,164
2022-10-21T16:00:13.183Z,160
2022-10-21T16:00:53.694Z,156
2022-10-21T16:01:34.249Z,152
2022-10-21T16:02:16.309Z,148
2022-10-21T16:09:39.960Z,104
2022-10-21T16:10:20.464Z,100
2022-10-21T16:11:00.966Z,96
2022-10-21T16:11:47.817Z,92
2022-10-21T16:12:21.952Z,92
2022-10-21T16:13:02.380Z,88
2022-10-21T16:13:42.852Z,84
2022-10-21T16:14:25.738Z,80
2022-10-21T16:15:03.847Z,80
2022-10-21T16:15:44.352Z,72
2022-10-21T16:16:24.846Z,68
2022-10-21T16:23:09.727Z,48
2022-10-21T16:23:50.215Z,44
2022-10-21T16:24:30.755Z,40
2022-10-21T16:25:11.213Z,40
2022-10-21T16:25:51.731Z,40
2022-10-21T16:26:32.215Z,36
2022-10-21T16:27:12.703Z,32
2022-10-21T16:28:33.679Z,32
2022-10-21T16:29:14.179Z,24
2022-10-21T16:29:54.698Z,24
2022-10-21T16:37:19.860Z,12
2022-10-21T16:38:00.313Z,8
2022-10-21T16:38:40.819Z,8
2022-10-21T16:39:21.318Z,8
2022-10-21T16:40:01.840Z,8
2022-10-21T16:40:42.319Z,4
2022-10-21T16:41:22.836Z,8
2022-10-21T16:42:03.321Z,4
2022-10-21T16:42:43.817Z,4
2022-10-21T16:43:24.337Z,4
2022-10-21T16:44:04.782Z,4
2022-10-21T16:50:49.809Z,0
2022-10-21T16:51:30.295Z,0
2022-10-21T16:52:10.773Z,0
2022-10-21T16:52:51.279Z,0
2022-10-21T16:53:31.707Z,0
2022-10-21T16:54:12.176Z,0
2022-10-21T16:54:52.685Z,0
2022-10-21T16:55:33.218Z,0
2022-10-21T16:56:13.677Z,0
2022-10-21T16:56:54.988Z,0
2022-10-21T16:57:34.720Z,0
2022-10-21T17:04:19.587Z,0
2022-10-21T17:05:00.064Z,0
2022-10-21T17:05:40.566Z,0
2022-10-21T17:06:21.054Z,0
2022-10-21T17:07:01.534Z,0
2022-10-21T17:07:42.303Z,0
2022-10-21T17:08:22.568Z,0
2022-10-21T17:09:03.121Z,0
2022-10-21T17:09:43.535Z,0
2022-10-21T17:10:24.003Z,0
2022-10-21T17:11:04.577Z,0
2022-10-21T17:17:49.611Z,0
2022-10-21T17:18:30.058Z,0
2022-10-21T17:19:10.532Z,0
2022-10-21T17:19:51.050Z,0
2022-10-21T17:20:31.535Z,0
2022-10-21T17:21:12.009Z,0
2022-10-21T17:21:52.506Z,0
2022-10-21T17:22:39.810Z,0
2022-10-21T17:23:20.270Z,0
2022-10-21T17:24:00.795Z,0
2022-10-21T17:24:41.332Z,0
2022-10-21T17:25:21.850Z,0
2022-10-21T17:26:02.311Z,0
2022-10-21T17:26:42.850Z,0
2022-10-21T17:27:23.365Z,0
2022-10-21T17:28:03.856Z,0
2022-10-21T17:28:44.353Z,0
2022-10-21T17:29:24.784Z,0
2022-10-21T17:36:09.952Z,0
2022-10-21T17:36:50.465Z,0
2022-10-21T17:37:30.956Z,0
2022-10-21T17:38:11.407Z,0
2022-10-21T17:38:51.942Z,0
2022-10-21T17:39:32.432Z,0
2022-10-21T17:40:12.938Z,0
2022-10-21T17:41:33.981Z,0
2022-10-21T17:42:14.421Z,0
2022-10-21T17:42:54.909Z,0
2022-10-21T17:49:39.889Z,0
2022-10-21T17:50:20.396Z,0
2022-10-21T17:51:00.912Z,0
2022-10-21T17:51:41.420Z,0
2022-10-21T17:52:21.936Z,0
2022-10-21T17:53:02.422Z,0
2022-10-21T17:53:42.875Z,0
2022-10-21T18:34:05.173Z,0
2022-10-21T18:34:46.115Z,0
2022-10-21T18:35:27.099Z,0
2022-10-21T18:36:08.149Z,0
2022-10-21T18:37:33.614Z,0
2022-10-21T18:38:56.262Z,0
2022-10-21T18:39:37.608Z,0
2022-10-21T18:40:19.017Z,0
2022-10-21T18:41:08.468Z,0
2022-10-21T18:41:41.494Z,0
2022-10-21T18:43:47.964Z,0
2022-10-21T18:44:28.141Z,0
2022-10-21T18:45:09.377Z,0
2022-10-21T18:45:50.445Z,0
2022-10-21T18:48:36.676Z,0
2022-10-21T18:49:19.389Z,0
2022-10-21T18:49:59.570Z,0
2022-10-21T18:50:40.524Z,0
2022-10-21T18:54:46.386Z,0
2022-10-21T18:55:27.583Z,0
2022-10-21T18:56:09.296Z,0
2022-10-21T18:56:50.389Z,0
2022-10-21T18:57:31.392Z,0
2022-10-21T19:03:14.163Z,0
2022-10-21T19:03:54.645Z,0
2022-10-21T19:04:35.353Z,0
2022-10-21T19:05:15.765Z,0
2022-10-21T19:05:56.383Z,0
2022-10-21T19:06:36.788Z,0
2022-10-21T19:07:17.237Z,0
2022-10-21T19:07:57.744Z,0
2022-10-21T19:08:38.207Z,0
2022-10-21T19:09:18.687Z,0
2022-10-21T19:09:59.144Z,0
2022-10-21T19:14:04.009Z,0
2022-10-21T19:14:44.279Z,0
2022-10-21T19:15:24.832Z,0
2022-10-21T19:16:05.334Z,0
2022-10-21T19:16:46.495Z,0
2022-10-21T19:17:26.386Z,0
2022-10-21T19:18:06.908Z,0
2022-10-21T19:18:47.517Z,0
2022-10-21T19:19:27.960Z,0
2022-10-21T19:20:08.512Z,0
2022-10-21T19:20:49.006Z,0
2022-10-21T19:26:54.061Z,0
2022-10-21T19:27:34.636Z,0
2022-10-21T19:28:15.101Z,0
2022-10-21T19:28:55.978Z,0
2022-10-21T19:29:36.439Z,0
2022-10-21T19:30:16.908Z,0
2022-10-21T19:30:57.418Z,0
2022-10-21T19:31:38.630Z,0
2022-10-21T19:32:18.731Z,0
2022-10-21T19:39:44.193Z,0
2022-10-21T19:40:24.628Z,0
2022-10-21T19:41:05.125Z,0
2022-10-21T19:41:45.651Z,0
2022-10-21T19:42:26.109Z,0
2022-10-21T19:43:06.586Z,0
2022-10-21T19:43:47.071Z,0
2022-10-21T19:44:27.571Z,0
2022-10-21T19:45:08.098Z,0
2022-10-21T19:45:48.615Z,0
2022-10-21T19:53:14.040Z,0
2022-10-21T19:53:54.525Z,0
2022-10-21T19:54:34.997Z,0
2022-10-21T19:55:15.503Z,0